createdAt,value
2023-08-17T00:00:33.466Z,96394.69
2023-08-17T00:02:59.833Z,96400.34
2023-08-17T00:05:26.150Z,96403.47
2023-08-17T00:07:52.546Z,96403.16
2023-08-17T00:10:18.879Z,96403.16
2023-08-17T00:12:45.263Z,96400.63
2023-08-17T00:15:11.595Z,96390.53
2023-08-17T00:17:37.978Z,96399.38
2023-08-17T00:20:04.316Z,96391.56
2023-08-17T00:22:30.737Z,96394.84
2023-08-17T00:24:57.127Z,96396.16
2023-08-17T00:27:23.837Z,96390.78
2023-08-17T00:29:50.611Z,96401.50
2023-08-17T00:32:18.596Z,96402.75
2023-08-17T00:34:45.040Z,96392.06
2023-08-17T00:37:11.412Z,96393.31
2023-08-17T00:39:37.785Z,96400.38
2023-08-17T00:42:04.114Z,96395.78
2023-08-17T00:44:30.426Z,96398.31
2023-08-17T00:46:56.748Z,96397.84
2023-08-17T00:49:23.115Z,96398.47
2023-08-17T00:51:49.441Z,96398.16
2023-08-17T00:54:15.812Z,96404.63
2023-08-17T00:56:42.183Z,96398.47
2023-08-17T00:59:08.508Z,96396.91
2023-08-17T01:01:34.826Z,96401.63
2023-08-17T01:04:01.147Z,96399.41
2023-08-17T01:06:27.475Z,96397.03
2023-08-17T01:08:53.789Z,96390.28
2023-08-17T01:11:20.170Z,96395.78
2023-08-17T01:13:46.514Z,96395.31
2023-08-17T01:16:12.937Z,96391.06
2023-08-17T01:18:39.366Z,96392.19
2023-08-17T01:21:05.729Z,96393.41
2023-08-17T01:23:32.094Z,96382.69
2023-08-17T01:25:58.493Z,96384.91
2023-08-17T01:28:24.832Z,96388.03
2023-08-17T01:30:51.198Z,96386.16
2023-08-17T01:33:17.601Z,96387.41
2023-08-17T01:35:43.955Z,96397.16
2023-08-17T01:38:10.325Z,96390.06
2023-08-17T01:40:36.727Z,96395.25
2023-08-17T01:43:03.073Z,96388.31
2023-08-17T01:45:29.401Z,96382.63
2023-08-17T01:47:55.736Z,96384.81
2023-08-17T01:50:22.063Z,96391.53
2023-08-17T01:52:48.394Z,96381.59
2023-08-17T01:55:14.742Z,96385.81
2023-08-17T01:57:41.125Z,96383.09
2023-08-17T02:00:07.517Z,96384.09
2023-08-17T02:02:33.954Z,96381.25
2023-08-17T02:05:00.402Z,96387.19
2023-08-17T02:07:27.052Z,96380.31
2023-08-17T02:09:53.556Z,96382.44
2023-08-17T02:12:19.890Z,96372.88
2023-08-17T02:14:46.212Z,96370.19
2023-08-17T02:17:12.573Z,96370.03
2023-08-17T02:19:38.936Z,96373.59
2023-08-17T02:22:05.269Z,96372.88
2023-08-17T02:24:31.662Z,96367.41
2023-08-17T02:26:58.064Z,96372.38
2023-08-17T02:29:24.394Z,96365.94
2023-08-17T02:31:50.712Z,96359.03
2023-08-17T02:34:17.078Z,96361.59
2023-08-17T02:36:43.449Z,96371.28
2023-08-17T02:39:09.891Z,96365.94
2023-08-17T02:41:36.238Z,96369.22
2023-08-17T02:44:02.571Z,96369.28
2023-08-17T02:46:28.941Z,96369.97
2023-08-17T02:48:55.380Z,96366.50
2023-08-17T02:51:21.780Z,96365.09
2023-08-17T02:53:48.118Z,96366.97
2023-08-17T02:56:14.566Z,96364.25
2023-08-17T02:58:40.954Z,96362.25
2023-08-17T03:01:07.279Z,96364.19
2023-08-17T03:03:33.730Z,96356.47
2023-08-17T03:06:00.190Z,96356.13
2023-08-17T03:08:26.583Z,96357.56
2023-08-17T03:10:52.959Z,96359.50
2023-08-17T03:13:19.294Z,96357.03
2023-08-17T03:15:45.693Z,96362.25
2023-08-17T03:18:12.033Z,96368.09
2023-08-17T03:20:38.426Z,96359.69
2023-08-17T03:23:04.811Z,96359.44
2023-08-17T03:25:31.208Z,96353.81
2023-08-17T03:27:57.610Z,96351.13
2023-08-17T03:30:24.008Z,96345.31
2023-08-17T03:32:50.365Z,96350.84
2023-08-17T03:35:16.735Z,96343.94
2023-08-17T03:37:43.088Z,96350.47
2023-08-17T03:40:09.416Z,96346.19
2023-08-17T03:42:35.747Z,96346.31
2023-08-17T03:45:02.143Z,96350.03
2023-08-17T03:47:28.591Z,96350.47
2023-08-17T03:49:55.128Z,96351.06
2023-08-17T03:52:21.460Z,96357.81
2023-08-17T03:54:47.926Z,96367.09
2023-08-17T03:57:14.305Z,96369.59
2023-08-17T03:59:40.640Z,96371.84
2023-08-17T04:02:07.017Z,96370.88
2023-08-17T04:04:33.434Z,96371.06
2023-08-17T04:06:59.844Z,96374.09
2023-08-17T04:09:26.237Z,96374.59
2023-08-17T04:11:52.689Z,96376.56
2023-08-17T04:14:20.252Z,96376.56
2023-08-17T04:16:46.837Z,96387.06
2023-08-17T04:19:13.263Z,96388.94
2023-08-17T04:21:39.606Z,96386.66
2023-08-17T04:24:05.937Z,96384.50
2023-08-17T04:26:32.258Z,96395.53
2023-08-17T04:28:58.654Z,96392.25
2023-08-17T04:31:25.030Z,96388.25
2023-08-17T04:33:51.434Z,96385.47
2023-08-17T04:36:17.765Z,96396.31
2023-08-17T04:38:44.147Z,96402.94
2023-08-17T04:41:10.542Z,96413.50
2023-08-17T04:43:36.920Z,96412.91
2023-08-17T04:46:03.288Z,96418.16
2023-08-17T04:48:29.652Z,96420.00
2023-08-17T04:50:55.982Z,96419.44
2023-08-17T04:53:22.303Z,96422.19
2023-08-17T04:55:48.691Z,96428.91
2023-08-17T04:58:15.035Z,96431.28
2023-08-17T05:00:41.408Z,96432.66
2023-08-17T05:03:11.782Z,96445.91
2023-08-17T05:05:43.510Z,96448.44
2023-08-17T05:08:09.841Z,96453.16
2023-08-17T05:10:36.151Z,96457.91
2023-08-17T05:13:02.941Z,96466.19
2023-08-17T05:15:29.386Z,96475.47
2023-08-17T05:17:55.812Z,96478.25
2023-08-17T05:20:22.201Z,96479.06
2023-08-17T05:22:48.528Z,96473.91
2023-08-17T05:25:14.899Z,96480.63
2023-08-17T05:27:41.307Z,96482.09
2023-08-17T05:30:07.703Z,96484.16
2023-08-17T05:32:34.140Z,96477.25
2023-08-17T05:35:00.552Z,96483.56
2023-08-17T05:37:27.113Z,96483.94
2023-08-17T05:39:53.798Z,96476.28
2023-08-17T05:42:20.185Z,96472.63
2023-08-17T05:44:46.511Z,96476.44
2023-08-17T05:47:12.832Z,96484.03
2023-08-17T05:49:39.160Z,96479.84
2023-08-17T05:52:05.535Z,96485.06
2023-08-17T05:54:31.923Z,96490.47
2023-08-17T05:56:58.254Z,96487.03
2023-08-17T05:59:24.638Z,96489.47
2023-08-17T06:01:51.007Z,96487.75
2023-08-17T06:04:17.327Z,96497.66
2023-08-17T06:06:43.713Z,96487.94
2023-08-17T06:09:10.110Z,96495.66
2023-08-17T06:11:36.451Z,96503.19
2023-08-17T06:14:02.829Z,96502.88
2023-08-17T06:16:29.200Z,96503.38
2023-08-17T06:18:55.610Z,96513.47
2023-08-17T06:21:21.983Z,96515.41
2023-08-17T06:23:48.305Z,96504.13
2023-08-17T06:26:14.626Z,96513.13
2023-08-17T06:28:41.012Z,96500.41
2023-08-17T06:31:07.358Z,96507.03
2023-08-17T06:33:33.750Z,96504.84
2023-08-17T06:36:00.080Z,96503.59
2023-08-17T06:38:26.408Z,96512.63
2023-08-17T06:40:52.789Z,96511.69
2023-08-17T06:43:19.176Z,96515.94
2023-08-17T06:45:45.536Z,96523.50
2023-08-17T06:48:11.948Z,96529.84
2023-08-17T06:50:38.305Z,96538.81
2023-08-17T06:53:04.642Z,96540.25
2023-08-17T06:55:31.031Z,96547.53
2023-08-17T06:57:57.374Z,96553.22
2023-08-17T07:00:23.745Z,96553.06
2023-08-17T07:02:55.071Z,96545.38
2023-08-17T07:05:22.633Z,96544.75
2023-08-17T07:07:48.955Z,96549.50
2023-08-17T07:10:15.554Z,96551.06
2023-08-17T07:12:41.987Z,96561.78
2023-08-17T07:15:08.433Z,96559.72
2023-08-17T07:17:34.798Z,96563.03
2023-08-17T07:20:15.594Z,96570.41
2023-08-17T07:22:47.321Z,96560.16
2023-08-17T07:25:13.662Z,96562.03
2023-08-17T07:27:40.041Z,96569.56
2023-08-17T07:30:06.390Z,96579.34
2023-08-17T07:32:32.804Z,96580.59
2023-08-17T07:34:59.238Z,96585.13
2023-08-17T07:37:25.746Z,96583.97
2023-08-17T07:39:52.432Z,96584.34
2023-08-17T07:42:18.878Z,96586.88
2023-08-17T07:44:45.278Z,96589.88
2023-08-17T07:47:11.617Z,96586.25
2023-08-17T07:49:38.018Z,96579.66
2023-08-17T07:52:04.377Z,96574.63
2023-08-17T07:54:30.723Z,96586.47
2023-08-17T07:56:57.100Z,96578.59
2023-08-17T07:59:23.434Z,96586.66
2023-08-17T08:01:49.887Z,96582.88
2023-08-17T08:04:16.248Z,96586.50
2023-08-17T08:06:42.621Z,96587.94
2023-08-17T08:09:08.955Z,96592.34
2023-08-17T08:11:35.374Z,96579.34
2023-08-17T08:14:01.713Z,96582.94
2023-08-17T08:16:28.097Z,96568.91
2023-08-17T08:18:56.364Z,96565.31
2023-08-17T08:21:23.141Z,96571.91
2023-08-17T08:23:49.534Z,96580.09
2023-08-17T08:26:15.888Z,96575.06
2023-08-17T08:28:42.282Z,96573.16
2023-08-17T08:31:08.704Z,96577.75
2023-08-17T08:33:35.052Z,96573.50
2023-08-17T08:36:01.444Z,96574.44
2023-08-17T08:38:27.768Z,96567.81
2023-08-17T08:40:54.233Z,96566.84
2023-08-17T08:43:20.575Z,96567.94
2023-08-17T08:45:46.942Z,96578.34
2023-08-17T08:48:13.338Z,96574.53
2023-08-17T08:50:39.785Z,96577.69
2023-08-17T08:53:06.144Z,96583.84
2023-08-17T08:55:32.500Z,96575.47
2023-08-17T08:57:58.833Z,96581.31
2023-08-17T09:00:25.201Z,96577.50
2023-08-17T09:02:51.635Z,96590.72
2023-08-17T09:05:18.067Z,96586.31
2023-08-17T09:07:44.449Z,96579.34
2023-08-17T09:10:10.811Z,96584.06
2023-08-17T09:12:40.909Z,96576.88
2023-08-17T09:15:07.872Z,96564.09
2023-08-17T09:17:34.216Z,96566.56
2023-08-17T09:20:00.665Z,96558.72
2023-08-17T09:22:27.271Z,96555.66
2023-08-17T09:24:53.879Z,96552.06
2023-08-17T09:27:20.235Z,96545.09
2023-08-17T09:29:46.647Z,96548.09
2023-08-17T09:32:13.006Z,96542.22
2023-08-17T09:34:39.336Z,96538.25
2023-08-17T09:37:05.734Z,96543.00
2023-08-17T09:39:32.071Z,96545.22
2023-08-17T09:41:58.568Z,96537.00
2023-08-17T09:44:24.886Z,96533.53
2023-08-17T09:46:51.279Z,96527.19
2023-08-17T09:49:17.659Z,96522.75
2023-08-17T09:51:44.012Z,96521.63
2023-08-17T09:54:10.332Z,96518.03
2023-08-17T09:56:36.686Z,96516.34
2023-08-17T09:59:03.026Z,96509.88
2023-08-17T10:01:29.369Z,96506.78
2023-08-17T10:03:55.776Z,96499.59
2023-08-17T10:06:26.612Z,96504.97
2023-08-17T10:08:53.764Z,96495.28
2023-08-17T10:11:20.173Z,96501.97
2023-08-17T10:13:46.526Z,96497.00
2023-08-17T10:16:12.893Z,96487.34
2023-08-17T10:18:39.246Z,96481.56
2023-08-17T10:21:05.561Z,96477.31
2023-08-17T10:23:31.950Z,96482.28
2023-08-17T10:25:58.345Z,96477.38
2023-08-17T10:28:24.748Z,96471.63
2023-08-17T10:30:51.142Z,96466.97
2023-08-17T10:33:17.495Z,96468.53
2023-08-17T10:35:43.872Z,96463.00
2023-08-17T10:38:11.558Z,96459.56
2023-08-17T10:40:38.034Z,96447.88
2023-08-17T10:43:04.445Z,96448.69
2023-08-17T10:45:32.133Z,96449.47
2023-08-17T10:47:59.011Z,96436.72
2023-08-17T10:50:25.430Z,96439.97
2023-08-17T10:52:51.815Z,96441.19
2023-08-17T10:55:18.152Z,96438.47
2023-08-17T10:57:44.530Z,96437.25
2023-08-17T11:00:10.872Z,96433.41
2023-08-17T11:02:37.458Z,96433.97
2023-08-17T11:05:04.040Z,96423.44
2023-08-17T11:07:30.394Z,96421.44
2023-08-17T11:09:56.810Z,96418.47
2023-08-17T11:12:23.188Z,96408.31
2023-08-17T11:14:49.516Z,96414.44
2023-08-17T11:17:15.890Z,96411.28
2023-08-17T11:19:42.220Z,96404.28
2023-08-17T11:22:08.538Z,96401.59
2023-08-17T11:24:34.912Z,96399.16
2023-08-17T11:27:01.297Z,96400.91
2023-08-17T11:29:27.697Z,96402.91
2023-08-17T11:31:54.072Z,96393.66
2023-08-17T11:34:20.475Z,96395.03
2023-08-17T11:36:46.894Z,96397.91
2023-08-17T11:39:13.221Z,96394.53
2023-08-17T11:41:39.634Z,96397.06
2023-08-17T11:44:06.025Z,96394.34
2023-08-17T11:46:32.431Z,96389.84
2023-08-17T11:48:58.774Z,96382.19
2023-08-17T11:51:25.153Z,96380.56
2023-08-17T11:53:51.487Z,96383.63
2023-08-17T11:56:17.823Z,96385.97
2023-08-17T11:58:44.610Z,96376.88
2023-08-17T12:01:11.574Z,96380.53
2023-08-17T12:03:38.165Z,96375.69
2023-08-17T12:06:04.558Z,96377.94
2023-08-17T12:08:30.971Z,96373.69
2023-08-17T12:10:57.386Z,96373.44
2023-08-17T12:13:23.804Z,96364.88
2023-08-17T12:15:50.142Z,96374.38
2023-08-17T12:18:16.478Z,96360.53
2023-08-17T12:20:44.436Z,96359.16
2023-08-17T12:23:11.512Z,96362.09
2023-08-17T12:25:37.864Z,96362.09
2023-08-17T12:28:04.291Z,96358.19
2023-08-17T12:30:30.702Z,96356.44
2023-08-17T12:32:58.718Z,96352.50
2023-08-17T12:35:25.244Z,96349.41
2023-08-17T12:37:51.648Z,96339.66
2023-08-17T12:40:18.049Z,96344.50
2023-08-17T12:42:44.403Z,96345.25
2023-08-17T12:45:10.731Z,96343.13
2023-08-17T12:47:37.145Z,96345.00
2023-08-17T12:50:03.576Z,96344.25
2023-08-17T12:52:29.926Z,96336.31
2023-08-17T12:54:56.257Z,96337.59
2023-08-17T12:57:22.602Z,96334.13
2023-08-17T12:59:48.989Z,96334.81
2023-08-17T13:02:15.432Z,96334.06
2023-08-17T13:04:41.816Z,96329.72
2023-08-17T13:07:08.149Z,96328.31
2023-08-17T13:09:34.489Z,96328.56
2023-08-17T13:12:00.830Z,96324.91
2023-08-17T13:14:27.226Z,96316.31
2023-08-17T13:16:53.618Z,96322.41
2023-08-17T13:19:20.029Z,96316.31
2023-08-17T13:21:46.448Z,96322.41
2023-08-17T13:24:12.812Z,96314.81
2023-08-17T13:26:39.171Z,96317.88
2023-08-17T13:29:05.515Z,96320.41
2023-08-17T13:31:31.845Z,96316.81
2023-08-17T13:33:58.230Z,96311.41
2023-08-17T13:36:24.616Z,96309.16
2023-08-17T13:38:51.000Z,96302.97
2023-08-17T13:41:17.328Z,96308.31
2023-08-17T13:43:43.669Z,96308.09
2023-08-17T13:46:10.020Z,96304.97
2023-08-17T13:48:36.398Z,96296.34
2023-08-17T13:51:02.754Z,96295.94
2023-08-17T13:53:29.156Z,96290.88
2023-08-17T13:55:55.518Z,96284.09
2023-08-17T13:58:21.895Z,96285.13
2023-08-17T14:00:48.284Z,96281.47
2023-08-17T14:03:14.791Z,96279.41
2023-08-17T14:05:41.173Z,96268.03
2023-08-17T14:08:07.546Z,96261.72
2023-08-17T14:10:39.872Z,96269.88
2023-08-17T14:13:06.958Z,96270.91
2023-08-17T14:15:33.295Z,96269.63
2023-08-17T14:17:59.669Z,96264.72
2023-08-17T14:20:26.062Z,96269.69
2023-08-17T14:22:52.462Z,96255.53
2023-08-17T14:25:18.845Z,96262.06
2023-08-17T14:27:45.264Z,96260.72
2023-08-17T14:30:11.666Z,96250.03
2023-08-17T14:32:38.083Z,96249.88
2023-08-17T14:35:04.455Z,96246.56
2023-08-17T14:37:31.352Z,96246.72
2023-08-17T14:39:58.063Z,96241.59
2023-08-17T14:42:24.678Z,96246.38
2023-08-17T14:44:51.327Z,96245.38
2023-08-17T14:47:21.264Z,96249.63
2023-08-17T14:49:48.032Z,96243.38
2023-08-17T14:52:14.418Z,96241.81
2023-08-17T14:54:43.373Z,96240.91
2023-08-17T14:57:09.890Z,96234.22
2023-08-17T14:59:36.276Z,96231.16
2023-08-17T15:02:02.670Z,96234.78
2023-08-17T15:04:29.094Z,96239.41
2023-08-17T15:06:55.436Z,96239.28
2023-08-17T15:09:21.779Z,96227.72
2023-08-17T15:11:48.091Z,96236.44
2023-08-17T15:14:16.171Z,96230.16
2023-08-17T15:16:42.840Z,96229.53
2023-08-17T15:19:09.230Z,96222.50
2023-08-17T15:21:35.570Z,96224.28
2023-08-17T15:24:03.055Z,96221.94
2023-08-17T15:26:29.846Z,96225.34
2023-08-17T15:28:56.190Z,96216.44
2023-08-17T15:31:22.643Z,96222.28
2023-08-17T15:33:49.036Z,96217.25
2023-08-17T15:36:15.428Z,96213.63
2023-08-17T15:38:41.772Z,96211.97
2023-08-17T15:41:08.137Z,96218.50
2023-08-17T15:43:34.534Z,96200.88
2023-08-17T15:46:01.008Z,96205.94
2023-08-17T15:48:27.513Z,96208.84
2023-08-17T15:50:53.950Z,96211.84
2023-08-17T15:53:20.392Z,96201.28
2023-08-17T15:55:46.761Z,96212.16
2023-08-17T15:58:13.099Z,96209.41
2023-08-17T16:00:39.447Z,96203.72
2023-08-17T16:03:05.840Z,96203.53
2023-08-17T16:05:32.262Z,96199.22
2023-08-17T16:07:58.600Z,96199.13
2023-08-17T16:10:24.984Z,96198.19
2023-08-17T16:12:51.315Z,96201.94
2023-08-17T16:15:17.722Z,96199.88
2023-08-17T16:17:44.105Z,96196.34
2023-08-17T16:20:10.453Z,96197.78
2023-08-17T16:22:36.852Z,96194.72
2023-08-17T16:25:03.221Z,96196.94
2023-08-17T16:27:29.800Z,96192.97
2023-08-17T16:29:56.320Z,96189.84
2023-08-17T16:32:22.695Z,96189.00
2023-08-17T16:34:49.082Z,96179.81
2023-08-17T16:37:15.439Z,96179.84
2023-08-17T16:39:41.857Z,96184.84
2023-08-17T16:42:08.271Z,96185.97
2023-08-17T16:44:34.652Z,96189.00
2023-08-17T16:47:01.043Z,96184.25
2023-08-17T16:49:30.701Z,96186.50
2023-08-17T16:51:57.391Z,96178.91
2023-08-17T16:54:23.709Z,96184.44
2023-08-17T16:59:19.552Z,96181.66
2023-08-17T17:01:45.918Z,96180.22
2023-08-17T17:04:12.328Z,96176.50
2023-08-17T17:06:38.736Z,96179.00
2023-08-17T17:09:05.075Z,96172.88
2023-08-17T17:11:31.480Z,96172.09
2023-08-17T17:13:58.823Z,96175.63
2023-08-17T17:16:25.327Z,96172.66
2023-08-17T17:18:51.745Z,96172.66
2023-08-17T17:21:18.089Z,96167.06
2023-08-17T17:23:44.476Z,96174.59
2023-08-17T17:26:10.825Z,96167.56
2023-08-17T17:28:37.202Z,96169.47
2023-08-17T17:31:03.565Z,96167.56
2023-08-17T17:33:29.937Z,96165.63
2023-08-17T17:35:56.328Z,96170.63
2023-08-17T17:38:22.715Z,96169.13
2023-08-17T17:40:49.044Z,96170.63
2023-08-17T17:43:15.345Z,96169.75
2023-08-17T17:45:41.723Z,96167.38
2023-08-17T17:48:08.095Z,96171.19
2023-08-17T17:50:34.493Z,96174.22
2023-08-17T17:53:00.888Z,96173.34
2023-08-17T17:55:27.220Z,96179.72
2023-08-17T17:57:53.615Z,96177.63
2023-08-17T18:00:19.945Z,96178.22
2023-08-17T18:02:46.321Z,96177.22
2023-08-17T18:05:12.735Z,96177.78
2023-08-17T18:07:39.084Z,96173.59
2023-08-17T18:10:05.408Z,96172.47
2023-08-17T18:12:31.784Z,96176.69
2023-08-17T18:14:58.185Z,96170.25
2023-08-17T18:17:24.547Z,96170.09
2023-08-17T18:19:50.969Z,96176.00
2023-08-17T18:22:17.377Z,96177.94
2023-08-17T18:24:43.803Z,96182.03
2023-08-17T18:27:10.143Z,96183.78
2023-08-17T18:29:36.548Z,96179.69
2023-08-17T18:32:02.878Z,96182.94
2023-08-17T18:34:29.189Z,96188.50
2023-08-17T18:36:55.562Z,96178.75
2023-08-17T18:39:21.891Z,96180.50
2023-08-17T18:41:48.274Z,96181.34
2023-08-17T18:44:14.694Z,96181.88
2023-08-17T18:46:41.900Z,96183.25
2023-08-17T18:49:09.648Z,96190.09
2023-08-17T18:51:36.012Z,96191.41
2023-08-17T18:54:02.336Z,96185.81
2023-08-17T18:56:28.719Z,96196.13
2023-08-17T18:58:55.056Z,96188.94
2023-08-17T19:01:21.451Z,96195.66
2023-08-17T19:03:47.969Z,96190.88
2023-08-17T19:06:14.437Z,96191.47
2023-08-17T19:08:40.761Z,96197.53
2023-08-17T19:11:07.141Z,96202.03
2023-08-17T19:13:33.470Z,96203.38
2023-08-17T19:15:59.937Z,96205.53
2023-08-17T19:18:26.379Z,96203.19
2023-08-17T19:20:52.816Z,96212.84
2023-08-17T19:23:19.165Z,96216.22
2023-08-17T19:25:45.486Z,96225.66
2023-08-17T19:28:11.874Z,96219.59
2023-08-17T19:30:38.205Z,96229.34
2023-08-17T19:33:04.571Z,96228.13
2023-08-17T19:35:30.951Z,96236.97
2023-08-17T19:37:57.329Z,96237.97
2023-08-17T19:40:23.772Z,96240.00
2023-08-17T19:42:50.178Z,96235.28
2023-08-17T19:45:16.553Z,96233.94
2023-08-17T19:47:42.898Z,96231.94
2023-08-17T19:50:09.294Z,96241.00
2023-08-17T19:52:35.645Z,96243.91
2023-08-17T19:55:01.978Z,96236.41
2023-08-17T19:57:28.581Z,96241.97
2023-08-17T19:59:55.211Z,96244.97
2023-08-17T20:02:21.572Z,96248.53
2023-08-17T20:04:47.944Z,96250.00
2023-08-17T20:07:14.317Z,96261.41
2023-08-17T20:09:40.661Z,96255.13
2023-08-17T20:12:07.055Z,96251.34
2023-08-17T20:14:33.393Z,96254.34
2023-08-17T20:16:59.773Z,96256.56
2023-08-17T20:19:26.097Z,96252.06
2023-08-17T20:21:52.460Z,96251.75
2023-08-17T20:24:18.841Z,96257.91
2023-08-17T20:26:45.181Z,96263.81
2023-08-17T20:29:11.719Z,96262.03
2023-08-17T20:31:38.203Z,96257.31
2023-08-17T20:34:04.624Z,96259.66
2023-08-17T20:36:31.013Z,96266.03
2023-08-17T20:38:57.343Z,96256.50
2023-08-17T20:41:23.711Z,96267.13
2023-08-17T20:43:50.110Z,96259.28
2023-08-17T20:46:16.561Z,96267.34
2023-08-17T20:48:42.914Z,96266.88
2023-08-17T20:51:09.295Z,96265.94
2023-08-17T20:53:35.699Z,96265.81
2023-08-17T20:56:02.073Z,96271.03
2023-08-17T20:58:28.443Z,96272.03
2023-08-17T21:00:54.839Z,96275.94
2023-08-17T21:03:21.329Z,96277.59
2023-08-17T21:05:47.756Z,96275.91
2023-08-17T21:08:14.144Z,96278.78
2023-08-17T21:10:40.843Z,96267.25
2023-08-17T21:13:07.178Z,96280.53
2023-08-17T21:15:33.644Z,96278.78
2023-08-17T21:18:00.203Z,96274.53
2023-08-17T21:20:26.658Z,96279.44
2023-08-17T21:22:53.048Z,96284.03
2023-08-17T21:25:19.435Z,96289.25
2023-08-17T21:27:45.792Z,96299.22
2023-08-17T21:30:12.164Z,96296.88
2023-08-17T21:32:38.490Z,96296.22
2023-08-17T21:35:04.838Z,96285.19
2023-08-17T21:37:31.496Z,96286.78
2023-08-17T21:39:58.079Z,96287.69
2023-08-17T21:42:24.416Z,96298.44
2023-08-17T21:44:50.753Z,96294.38
2023-08-17T21:47:17.100Z,96285.06
2023-08-17T21:49:43.452Z,96297.88
2023-08-17T21:52:09.844Z,96294.47
2023-08-17T21:54:36.191Z,96303.97
2023-08-17T21:57:02.574Z,96296.69
2023-08-17T21:59:28.985Z,96297.94
2023-08-17T22:01:55.323Z,96292.31
2023-08-17T22:04:21.686Z,96295.66
2023-08-17T22:06:48.042Z,96294.09
2023-08-17T22:09:14.436Z,96305.91
2023-08-17T22:11:40.787Z,96310.34
2023-08-17T22:14:07.174Z,96301.41
2023-08-17T22:16:33.542Z,96308.50
2023-08-17T22:18:59.961Z,96310.53
2023-08-17T22:21:26.318Z,96319.88
2023-08-17T22:23:52.635Z,96318.03
2023-08-17T22:26:19.009Z,96318.78
2023-08-17T22:28:45.340Z,96316.94
2023-08-17T22:31:11.741Z,96323.09
2023-08-17T22:33:38.212Z,96336.31
2023-08-17T22:36:04.592Z,96333.81
2023-08-17T22:38:30.983Z,96331.78
2023-08-17T22:40:57.326Z,96331.28
2023-08-17T22:43:23.641Z,96322.81
2023-08-17T22:45:50.086Z,96326.56
2023-08-17T22:48:16.522Z,96337.94
2023-08-17T22:50:42.875Z,96334.34
2023-08-17T22:53:09.198Z,96330.69
2023-08-17T22:55:35.589Z,96348.97
2023-08-17T22:58:01.984Z,96341.91
2023-08-17T23:00:28.366Z,96337.66
2023-08-17T23:02:54.787Z,96335.59
2023-08-17T23:05:21.135Z,96336.53
2023-08-17T23:07:47.456Z,96343.63
2023-08-17T23:10:13.797Z,96340.47
2023-08-17T23:12:40.182Z,96344.25
2023-08-17T23:15:06.585Z,96337.50
2023-08-17T23:17:32.905Z,96343.97
2023-08-17T23:19:59.275Z,96341.59
2023-08-17T23:22:25.606Z,96343.00
2023-08-17T23:24:51.921Z,96346.00
2023-08-17T23:27:18.336Z,96341.16
2023-08-17T23:29:44.703Z,96343.34
2023-08-17T23:32:26.232Z,96337.84
2023-08-17T23:34:53.957Z,96332.31
2023-08-17T23:37:20.295Z,96343.03
2023-08-17T23:39:46.619Z,96346.84
2023-08-17T23:42:12.995Z,96335.34
2023-08-17T23:44:39.378Z,96346.69
2023-08-17T23:47:05.735Z,96349.19
2023-08-17T23:49:32.093Z,96351.56
2023-08-17T23:51:58.429Z,96350.66
2023-08-17T23:54:24.798Z,96346.38
2023-08-17T23:56:51.180Z,96340.19
2023-08-17T23:59:17.507Z,96346.50
